Flight Track Log - Related Links

Times and Time Zones

All times are in EDT time to prevent confusion due to time zone crossing. See the FLG4208 flight status page for this flight to view local times or setup timezone preferences in your user account.

Time Position Orientation Groundspeed Altitude Reporting Facility
EDT Latitude Longitude Course Direction KTS MPH feet Rate Location/Type
Tue 11:56:27 AM 42.2733 -85.4842 83° East 228 262 4,100  Level Chicago Center
Tue 11:57:28 AM 42.2417 -85.3711 111° Southeast 281 323 6,900 2,732 Climbing Chicago Center
Tue 11:58:00 AM 42.1528 -85.1850 106° East  Level FlightAware Approximate
Tue 11:58:30 AM 42.2072 -85.2514 111° Southeast 306 352 9,700  Level Chicago Center
Tue 11:59:00 AM 42.1330 -85.0928 106° East  Level FlightAware Approximate
Tue 11:59:15 AM 42.1772 -85.1592 114° Southeast 341 392 10,800  Level Cleveland Center
Tue 12:00:00 PM 42.1067 -85.0067 143° Southeast  Level FlightAware Approximate
Tue 12:00:15 PM 42.1428 -85.0281 109° East 365 420 12,100  Level Cleveland Center
Tue 12:01:15 PM 42.1003 -84.8850 112° Southeast 385 443 12,900 400 Climbing Cleveland Center
Tue 12:02:15 PM 42.0553 -84.7450 113° Southeast 405 466 12,900  Level Cleveland Center
Tue 12:03:15 PM 42.0106 -84.6022 113° Southeast 405 466 12,900 -100 Level Cleveland Center
Tue 12:04:15 PM 41.9631 -84.4622 114° Southeast 405 466 12,700 -286 Descending Cleveland Center
Tue 12:05:00 PM 41.9269 -84.3569 115° Southeast 417 480 12,400 -500 Descending Cleveland Center
Tue 12:05:15 PM 41.9178 -84.3172 107° East 405 466 12,200 -486 Descending Cleveland Center
Tue 12:05:37 PM 41.9028 -84.2661 112° Southeast 423 487 12,100 -300 Descending Cleveland Center
Tue 12:06:15 PM 41.9033 -84.1825 89° East 397 457 11,900 -100 Descending Cleveland Center
Tue 12:06:37 PM 41.9183 -84.1078 75° East 430 495 12,000 100 Climbing Cleveland Center
Tue 12:07:15 PM 41.9311 -84.0247 78° East 404 465 12,000  Level Cleveland Center
Tue 12:07:38 PM 41.9461 -83.9419 76° East 435 501 12,000  Level Cleveland Center
Tue 12:08:15 PM 41.9650 -83.8703 70° East 410 472 12,000  Level Cleveland Center
Tue 12:08:39 PM 42.0022 -83.8022 54° Northeast 416 479 12,000  Level Cleveland Center
Tue 12:09:15 PM 42.0311 -83.7394 58° Northeast 410 472 12,000  Level Cleveland Center
Tue 12:09:40 PM 42.0683 -83.6769 51° Northeast 414 476 12,000  Level Cleveland Center
Tue 12:10:15 PM 42.0972 -83.6139 58° Northeast 405 466 12,000 -98 Level Cleveland Center
Tue 12:10:41 PM 42.1156 -83.5447 70° East 363 418 11,900 -146 Descending Cleveland Center
Tue 12:10:56 PM 42.1253 -83.5078 70° East 339 390 11,900  Level FAA TRACON SMA TRACON (SMA)
Tue 12:11:15 PM 42.1333 -83.4733 72° East 311 358 11,900 154 Level FAA TRACON SMA TRACON (SMA)
Tue 12:11:35 PM 42.1406 -83.4411 73° East 303 349 12,000 98 Climbing FAA TRACON SMA TRACON (SMA)
Tue 12:12:16 PM 42.1581 -83.3658 73° East 300 345 12,000  Level FAA TRACON SMA TRACON (SMA)
Tue 12:12:36 PM 42.1656 -83.3317 73° East 301 346 12,000 -600 Level FAA TRACON SMA TRACON (SMA)
Tue 12:12:56 PM 42.1744 -83.2917 73° East 296 341 11,600 -1,231 Descending FAA TRACON SMA TRACON (SMA)
Tue 12:13:15 PM 42.1856 -83.2631 62° Northeast 273 314 11,200 -1,538 Descending FAA TRACON SMA TRACON (SMA)
Tue 12:13:35 PM 42.2033 -83.2431 40° Northeast 248 285 10,600 -2,400 Descending FAA TRACON SMA TRACON (SMA)
Tue 12:13:55 PM 42.2272 -83.2175 38° Northeast 280 322 9,600 -2,250 Descending FAA TRACON SMA TRACON (SMA)
Tue 12:14:15 PM 42.2467 -83.1975 37° Northeast 285 328 9,100 -1,463 Descending FAA TRACON SMA TRACON (SMA)
Tue 12:14:36 PM 42.2656 -83.1783 37° Northeast 280 322 8,600 -1,800 Descending FAA TRACON SMA TRACON (SMA)
Tue 12:14:55 PM 42.2892 -83.1550 36° Northeast 276 318 7,900 -1,800 Descending FAA TRACON SMA TRACON (SMA)
Tue 12:15:16 PM 42.3072 -83.1372 36° Northeast 274 315 7,400 -1,463 Descending FAA TRACON SMA TRACON (SMA)
Tue 12:15:36 PM 42.3267 -83.1181 36° Northeast 271 312 6,900 -1,692 Descending FAA TRACON SMA TRACON (SMA)
Tue 12:15:55 PM 42.3497 -83.0958 35° Northeast 265 305 6,300 -1,500 Descending FAA TRACON SMA TRACON (SMA)
Tue 12:16:16 PM 42.3661 -83.0811 34° Northeast 261 300 5,900 -1,463 Descending FAA TRACON SMA TRACON (SMA)
Tue 12:16:36 PM 42.3869 -83.0825 357° North 213 245 5,300 -1,350 Descending FAA TRACON SMA TRACON (SMA)
Tue 12:16:56 PM 42.4028 -83.1042 315° West 212 244 5,000 -462 Descending FAA TRACON SMA TRACON (SMA)
Tue 12:17:15 PM 42.4131 -83.1239 305° West 207 238 5,000  Level FAA TRACON SMA TRACON (SMA)
Tue 12:17:36 PM 42.4247 -83.1483 303° West 199 229 5,000  Level FAA TRACON SMA TRACON (SMA)
Tue 12:17:56 PM 42.4228 -83.1689 263° West 191 220 5,000  Level FAA TRACON SMA TRACON (SMA)
Tue 12:18:16 PM 42.4114 -83.1917 236° Southwest 197 227 5,000 -300 Level FAA TRACON SMA TRACON (SMA)
Tue 12:18:36 PM 42.3978 -83.2014 208° Southwest 195 224 4,800 -600 Descending FAA TRACON SMA TRACON (SMA)

Login

Don't have an account? Register now (free) for customized features, flight alerts, and more!